createdAt,value
2023-03-16T00:02:46.912Z,100442.00
2023-03-16T00:05:51.659Z,100446.34
2023-03-16T00:08:59.186Z,100450.50
2023-03-16T00:12:05.973Z,100450.09
2023-03-16T00:15:09.244Z,100458.41
2023-03-16T00:18:12.342Z,100455.78
2023-03-16T00:21:15.290Z,100463.78
2023-03-16T00:24:21.330Z,100457.72
2023-03-16T00:27:26.261Z,100458.78
2023-03-16T00:30:31.683Z,100466.69
2023-03-16T00:33:37.860Z,100461.03
2023-03-16T00:36:42.740Z,100458.50
2023-03-16T00:39:47.233Z,100460.66
2023-03-16T00:42:50.278Z,100463.87
2023-03-16T00:46:06.808Z,100472.59
2023-03-16T00:49:10.310Z,100467.13
2023-03-16T00:52:15.064Z,100464.88
2023-03-16T00:55:19.336Z,100468.94
2023-03-16T00:58:23.484Z,100478.34
2023-03-16T01:01:27.756Z,100481.19
2023-03-16T01:04:30.464Z,100484.13
2023-03-16T01:07:36.475Z,100488.56
2023-03-16T01:10:40.790Z,100488.84
2023-03-16T01:13:44.585Z,100494.03
2023-03-16T01:16:47.376Z,100487.16
2023-03-16T01:19:51.634Z,100495.44
2023-03-16T01:22:54.390Z,100492.00
2023-03-16T01:25:58.361Z,100485.44
2023-03-16T01:29:02.512Z,100491.19
2023-03-16T01:32:07.157Z,100498.88
2023-03-16T01:35:10.388Z,100488.37
2023-03-16T01:38:13.584Z,100493.34
2023-03-16T01:41:17.913Z,100499.38
2023-03-16T01:44:31.042Z,100504.34
2023-03-16T01:47:39.271Z,100509.50
2023-03-16T01:50:42.753Z,100506.25
2023-03-16T01:53:49.107Z,100508.19
2023-03-16T01:56:55.779Z,100516.88
2023-03-16T02:00:18.851Z,100515.25
2023-03-16T02:03:23.518Z,100510.94
2023-03-16T02:06:26.640Z,100504.34
2023-03-16T02:09:30.176Z,100512.44
2023-03-16T02:12:33.376Z,100517.69
2023-03-16T02:15:37.638Z,100515.25
2023-03-16T02:18:40.610Z,100519.38
2023-03-16T02:22:03.938Z,100525.56
2023-03-16T02:25:07.650Z,100535.84
2023-03-16T02:28:31.268Z,100537.16
2023-03-16T02:31:34.995Z,100541.19
2023-03-16T02:34:39.199Z,100542.59
2023-03-16T02:37:42.305Z,100553.22
2023-03-16T02:40:54.912Z,100551.41
2023-03-16T02:44:04.979Z,100550.59
2023-03-16T02:47:13.469Z,100555.53
2023-03-16T02:50:16.661Z,100563.41
2023-03-16T02:53:20.387Z,100568.56
2023-03-16T02:56:23.617Z,100567.25
2023-03-16T02:59:26.561Z,100580.38
2023-03-16T03:02:29.825Z,100582.59
2023-03-16T03:05:32.550Z,100580.19
2023-03-16T03:08:36.043Z,100591.09
2023-03-16T03:11:39.273Z,100583.69
2023-03-16T03:14:42.491Z,100594.41
2023-03-16T03:17:46.344Z,100597.94
2023-03-16T03:20:49.546Z,100602.87
2023-03-16T03:23:53.169Z,100609.53
2023-03-16T03:26:56.231Z,100610.91
2023-03-16T03:29:59.916Z,100615.88
2023-03-16T03:33:04.497Z,100613.50
2023-03-16T03:36:07.750Z,100608.12
2023-03-16T03:39:11.255Z,100619.56
2023-03-16T03:42:14.525Z,100618.03
2023-03-16T03:45:18.598Z,100623.16
2023-03-16T03:48:21.465Z,100629.72
2023-03-16T03:51:24.502Z,100621.31
2023-03-16T03:54:28.214Z,100637.97
2023-03-16T03:57:31.350Z,100638.28
2023-03-16T04:00:34.285Z,100644.25
2023-03-16T04:03:37.588Z,100650.81
2023-03-16T04:06:41.967Z,100648.38
2023-03-16T04:09:45.071Z,100647.88
2023-03-16T04:12:51.404Z,100642.69
2023-03-16T04:15:59.312Z,100646.53
2023-03-16T04:19:02.363Z,100659.34
2023-03-16T04:22:06.767Z,100653.06
2023-03-16T04:25:15.073Z,100669.53
2023-03-16T04:28:18.825Z,100673.34
2023-03-16T04:31:22.921Z,100673.66
2023-03-16T04:34:26.992Z,100679.38
2023-03-16T04:37:30.663Z,100679.66
2023-03-16T04:40:33.796Z,100681.06
2023-03-16T04:43:36.892Z,100683.00
2023-03-16T04:46:40.787Z,100680.84
2023-03-16T04:49:44.392Z,100679.06
2023-03-16T04:52:48.378Z,100676.38
2023-03-16T04:55:51.493Z,100673.12
2023-03-16T04:58:57.113Z,100675.13
2023-03-16T05:02:01.612Z,100679.22
2023-03-16T05:05:06.045Z,100686.34
2023-03-16T05:08:10.991Z,100698.88
2023-03-16T05:11:14.627Z,100703.81
2023-03-16T05:14:21.675Z,100698.41
2023-03-16T05:17:25.730Z,100707.13
2023-03-16T05:20:28.978Z,100706.56
2023-03-16T05:23:32.436Z,100713.38
2023-03-16T05:26:35.792Z,100721.25
2023-03-16T05:29:40.413Z,100714.94
2023-03-16T05:32:44.454Z,100722.19
2023-03-16T05:35:48.938Z,100726.22
2023-03-16T05:38:52.899Z,100725.66
2023-03-16T05:41:57.314Z,100732.66
2023-03-16T05:45:00.318Z,100729.44
2023-03-16T05:48:05.907Z,100729.69
2023-03-16T05:51:11.563Z,100732.25
2023-03-16T05:54:15.147Z,100739.91
2023-03-16T05:57:18.764Z,100748.34
2023-03-16T06:00:23.014Z,100749.81
2023-03-16T06:03:26.526Z,100757.91
2023-03-16T06:06:29.692Z,100762.81
2023-03-16T06:09:33.267Z,100767.75
2023-03-16T06:12:38.326Z,100768.59
2023-03-16T06:15:42.226Z,100778.38
2023-03-16T06:18:45.206Z,100781.97
2023-03-16T06:21:48.412Z,100783.38
2023-03-16T06:24:52.123Z,100785.91
2023-03-16T06:27:55.967Z,100795.94
2023-03-16T06:30:58.967Z,100797.84
2023-03-16T06:34:02.752Z,100803.25
2023-03-16T06:37:05.830Z,100803.00
2023-03-16T06:40:10.085Z,100804.59
2023-03-16T06:43:12.877Z,100805.53
2023-03-16T06:46:18.218Z,100794.69
2023-03-16T06:49:21.505Z,100801.72
2023-03-16T06:52:25.480Z,100798.19
2023-03-16T06:55:28.394Z,100811.25
2023-03-16T06:58:31.511Z,100827.41
2023-03-16T07:01:34.466Z,100816.87
2023-03-16T07:04:38.505Z,100829.03
2023-03-16T07:07:43.103Z,100821.28
2023-03-16T07:10:46.164Z,100833.47
2023-03-16T07:13:49.316Z,100837.31
2023-03-16T07:16:53.275Z,100830.22
2023-03-16T07:19:57.178Z,100841.75
2023-03-16T07:23:00.572Z,100835.16
2023-03-16T07:26:03.887Z,100843.41
2023-03-16T07:29:09.662Z,100836.09
2023-03-16T07:32:13.117Z,100844.03
2023-03-16T07:35:17.499Z,100846.94
2023-03-16T07:38:22.059Z,100844.75
2023-03-16T07:41:27.314Z,100842.88
2023-03-16T07:44:43.325Z,100853.66
2023-03-16T07:47:48.357Z,100852.25
2023-03-16T07:50:51.821Z,100855.56
2023-03-16T07:53:55.166Z,100849.91
2023-03-16T07:56:59.339Z,100851.88
2023-03-16T08:00:05.440Z,100857.78
2023-03-16T08:03:16.120Z,100861.09
2023-03-16T08:06:21.645Z,100858.41
2023-03-16T08:09:24.607Z,100866.53
2023-03-16T08:12:27.970Z,100864.16
2023-03-16T08:15:34.064Z,100860.66
2023-03-16T08:18:39.763Z,100863.59
2023-03-16T08:22:00.386Z,100865.66
2023-03-16T08:25:07.377Z,100865.09
2023-03-16T08:28:11.060Z,100869.88
2023-03-16T08:31:15.692Z,100866.63
2023-03-16T08:34:18.967Z,100879.06
2023-03-16T08:37:22.361Z,100868.47
2023-03-16T08:40:30.049Z,100864.81
2023-03-16T08:43:35.122Z,100872.06
2023-03-16T08:46:38.032Z,100873.12
2023-03-16T08:49:41.601Z,100857.37
2023-03-16T08:52:45.112Z,100861.16
2023-03-16T08:55:48.637Z,100854.44
2023-03-16T08:58:52.391Z,100858.81
2023-03-16T09:01:55.524Z,100865.66
2023-03-16T09:04:59.196Z,100864.13
2023-03-16T09:08:04.204Z,100855.91
2023-03-16T09:11:09.754Z,100866.41
2023-03-16T09:14:15.617Z,100865.47
2023-03-16T09:17:18.825Z,100867.00
2023-03-16T09:20:26.218Z,100867.16
2023-03-16T09:23:30.463Z,100875.91
2023-03-16T09:26:33.751Z,100871.09
2023-03-16T09:29:36.762Z,100872.91
2023-03-16T09:32:39.950Z,100874.09
2023-03-16T09:35:45.141Z,100863.22
2023-03-16T09:38:48.868Z,100867.19
2023-03-16T09:42:04.620Z,100859.72
2023-03-16T09:45:29.269Z,100868.66
2023-03-16T09:48:35.851Z,100872.03
2023-03-16T09:51:44.933Z,100859.81
2023-03-16T09:55:16.386Z,100873.16
2023-03-16T09:58:22.626Z,100875.09
2023-03-16T10:01:58.831Z,100892.13
2023-03-16T10:05:23.209Z,100879.03
2023-03-16T10:08:33.166Z,100878.31
2023-03-16T10:11:42.858Z,100884.66
2023-03-16T10:14:56.815Z,100885.47
2023-03-16T10:18:06.743Z,100892.28
2023-03-16T10:21:18.560Z,100876.97
2023-03-16T10:24:25.494Z,100878.41
2023-03-16T10:27:36.779Z,100890.56
2023-03-16T10:30:42.835Z,100886.94
2023-03-16T10:33:46.038Z,100879.88
2023-03-16T10:36:50.291Z,100890.87
2023-03-16T10:39:53.002Z,100897.53
2023-03-16T10:42:56.138Z,100887.56
2023-03-16T10:46:02.544Z,100881.16
2023-03-16T10:49:05.980Z,100878.13
2023-03-16T10:52:31.718Z,100871.94
2023-03-16T10:55:43.851Z,100872.16
2023-03-16T10:58:47.044Z,100877.56
2023-03-16T11:01:50.346Z,100875.16
2023-03-16T11:04:54.654Z,100867.25
2023-03-16T11:08:23.551Z,100860.69
2023-03-16T11:11:34.072Z,100864.16
2023-03-16T11:14:37.471Z,100864.63
2023-03-16T11:17:49.930Z,100875.56
2023-03-16T11:20:55.399Z,100864.75
2023-03-16T11:24:00.061Z,100865.06
2023-03-16T11:27:08.762Z,100869.50
2023-03-16T11:30:12.026Z,100853.44
2023-03-16T11:33:15.754Z,100862.62
2023-03-16T11:36:35.956Z,100850.22
2023-03-16T11:39:57.834Z,100844.69
2023-03-16T11:43:20.369Z,100843.56
2023-03-16T11:46:46.435Z,100845.34
2023-03-16T11:50:15.130Z,100851.25
2023-03-16T11:53:24.357Z,100854.91
2023-03-16T11:57:14.814Z,100833.94
2023-03-16T12:00:45.759Z,100839.16
2023-03-16T12:04:20.867Z,100844.72
2023-03-16T12:07:52.162Z,100836.53
2023-03-16T12:11:04.564Z,100837.66
2023-03-16T12:14:34.216Z,100840.22
2023-03-16T12:17:38.220Z,100828.66
2023-03-16T12:21:06.414Z,100831.94
2023-03-16T12:24:34.076Z,100828.22
2023-03-16T12:27:41.421Z,100824.34
2023-03-16T12:30:53.518Z,100823.31
2023-03-16T12:34:02.200Z,100821.03
2023-03-16T12:37:17.261Z,100813.06
2023-03-16T12:40:31.876Z,100822.75
2023-03-16T12:43:50.577Z,100816.72
2023-03-16T12:47:15.523Z,100821.03
2023-03-16T12:50:20.907Z,100813.84
2023-03-16T12:53:53.386Z,100818.38
2023-03-16T12:57:09.897Z,100810.97
2023-03-16T13:00:15.084Z,100817.69
2023-03-16T13:03:22.503Z,100817.59
2023-03-16T13:06:25.417Z,100814.44
2023-03-16T13:09:32.289Z,100801.12
2023-03-16T13:12:41.960Z,100805.75
2023-03-16T13:15:47.693Z,100817.22
2023-03-16T13:18:52.805Z,100817.69
2023-03-16T13:22:05.602Z,100824.41
2023-03-16T13:25:31.060Z,100813.31
2023-03-16T13:28:37.969Z,100820.31
2023-03-16T13:31:43.798Z,100807.44
2023-03-16T13:34:53.387Z,100811.81
2023-03-16T13:38:06.008Z,100813.31
2023-03-16T13:41:11.946Z,100810.28
2023-03-16T13:44:15.764Z,100814.69
2023-03-16T13:47:21.714Z,100821.31
2023-03-16T13:50:24.805Z,100821.13
2023-03-16T13:53:31.714Z,100819.06
2023-03-16T13:56:35.261Z,100821.16
2023-03-16T13:59:38.586Z,100813.16
2023-03-16T14:02:43.853Z,100815.69
2023-03-16T14:05:47.830Z,100823.94
2023-03-16T14:08:54.297Z,100830.56
2023-03-16T14:11:58.062Z,100825.09
2023-03-16T14:15:00.884Z,100810.97
2023-03-16T14:18:21.729Z,100805.97
2023-03-16T14:21:27.601Z,100810.03
2023-03-16T14:24:35.059Z,100812.78
2023-03-16T14:27:43.365Z,100812.84
2023-03-16T14:30:55.370Z,100805.38
2023-03-16T14:34:04.141Z,100807.47
2023-03-16T14:37:09.819Z,100812.84
2023-03-16T14:40:34.687Z,100812.63
2023-03-16T14:43:41.401Z,100820.78
2023-03-16T14:46:44.269Z,100811.41
2023-03-16T14:49:47.701Z,100809.81
2023-03-16T14:52:51.614Z,100816.16
2023-03-16T14:55:56.034Z,100812.78
2023-03-16T14:58:58.714Z,100816.53
2023-03-16T15:02:04.456Z,100815.47
2023-03-16T15:05:09.115Z,100820.03
2023-03-16T15:08:20.281Z,100823.47
2023-03-16T15:11:24.856Z,100827.34
2023-03-16T15:14:46.812Z,100818.88
2023-03-16T15:17:52.069Z,100827.66
2023-03-16T15:20:55.494Z,100828.91
2023-03-16T15:24:03.143Z,100837.09
2023-03-16T15:27:21.283Z,100831.22
2023-03-16T15:30:26.904Z,100840.25
2023-03-16T15:33:30.115Z,100849.88
2023-03-16T15:36:32.988Z,100845.41
2023-03-16T15:39:36.355Z,100847.88
2023-03-16T15:42:39.139Z,100840.81
2023-03-16T15:45:42.247Z,100844.34
2023-03-16T15:48:45.042Z,100865.28
2023-03-16T15:51:48.115Z,100861.88
2023-03-16T15:54:51.500Z,100861.78
2023-03-16T15:58:00.712Z,100862.81
2023-03-16T16:01:05.482Z,100874.63
2023-03-16T16:04:14.593Z,100864.44
2023-03-16T16:07:17.474Z,100872.31
2023-03-16T16:10:20.928Z,100879.22
2023-03-16T16:13:42.936Z,100870.19
2023-03-16T16:16:47.697Z,100877.09
2023-03-16T16:19:50.641Z,100883.06
2023-03-16T16:22:56.003Z,100880.50
2023-03-16T16:26:07.544Z,100888.88
2023-03-16T16:29:32.315Z,100887.69
2023-03-16T16:32:35.063Z,100888.91
2023-03-16T16:35:38.780Z,100895.69
2023-03-16T16:38:41.916Z,100899.31
2023-03-16T16:41:46.252Z,100901.19
2023-03-16T16:44:49.247Z,100904.72
2023-03-16T16:47:56.547Z,100904.16
2023-03-16T16:51:01.616Z,100905.38
2023-03-16T16:54:15.976Z,100906.44
2023-03-16T16:57:20.907Z,100913.47
2023-03-16T17:00:26.246Z,100914.84
2023-03-16T17:03:30.799Z,100915.22
2023-03-16T17:06:34.542Z,100927.09
2023-03-16T17:09:37.557Z,100923.75
2023-03-16T17:12:41.238Z,100928.00
2023-03-16T17:15:45.809Z,100941.13
2023-03-16T17:18:50.177Z,100940.50
2023-03-16T17:21:55.678Z,100939.06
2023-03-16T17:25:02.205Z,100936.94
2023-03-16T17:28:05.857Z,100934.50
2023-03-16T17:31:11.920Z,100941.66
2023-03-16T17:34:16.566Z,100942.47
2023-03-16T17:37:22.857Z,100946.03
2023-03-16T17:40:26.552Z,100948.47
2023-03-16T17:43:32.526Z,100945.06
2023-03-16T17:46:36.633Z,100959.00
2023-03-16T17:49:49.140Z,100957.88
2023-03-16T17:52:53.836Z,100965.69
2023-03-16T17:55:58.510Z,100962.44
2023-03-16T17:59:06.624Z,100968.41
2023-03-16T18:02:45.147Z,100983.91
2023-03-16T18:05:52.814Z,100978.00
2023-03-16T18:08:57.642Z,100989.53
2023-03-16T18:12:02.290Z,100989.16
2023-03-16T18:15:07.479Z,100988.28
2023-03-16T18:18:22.092Z,100992.66
2023-03-16T18:21:27.350Z,100986.16
2023-03-16T18:24:32.579Z,100991.25
2023-03-16T18:27:38.765Z,100994.00
2023-03-16T18:30:52.999Z,101007.84
2023-03-16T18:34:01.459Z,101010.59
2023-03-16T18:37:18.590Z,101011.84
2023-03-16T18:40:25.418Z,101016.44
2023-03-16T18:43:30.468Z,101014.88
2023-03-16T18:46:39.345Z,101023.87
2023-03-16T18:49:48.003Z,101020.53
2023-03-16T18:52:53.284Z,101022.50
2023-03-16T18:56:01.992Z,101028.19
2023-03-16T18:59:06.111Z,101023.37
2023-03-16T19:02:43.301Z,101025.75
2023-03-16T19:05:51.002Z,101039.34
2023-03-16T19:09:05.804Z,101044.44
2023-03-16T19:12:16.576Z,101044.66
2023-03-16T19:15:26.447Z,101046.78
2023-03-16T19:18:31.303Z,101053.34
2023-03-16T19:21:36.745Z,101055.50
2023-03-16T19:24:50.497Z,101060.06
2023-03-16T19:27:56.960Z,101062.00
2023-03-16T19:31:27.903Z,101053.22
2023-03-16T19:34:32.971Z,101051.91
2023-03-16T19:37:38.118Z,101058.75
2023-03-16T19:40:45.915Z,101078.38
2023-03-16T19:43:51.495Z,101073.81
2023-03-16T19:46:56.956Z,101069.25
2023-03-16T19:50:03.386Z,101069.31
2023-03-16T19:53:17.580Z,101059.03
2023-03-16T19:56:25.587Z,101068.78
2023-03-16T19:59:34.861Z,101059.19
2023-03-16T20:02:43.018Z,101080.09
2023-03-16T20:05:54.635Z,101089.69
2023-03-16T20:08:58.941Z,101085.94
2023-03-16T20:12:04.617Z,101080.56
2023-03-16T20:15:18.731Z,101085.88
2023-03-16T20:18:22.597Z,101078.94
2023-03-16T20:21:27.553Z,101081.37
2023-03-16T20:24:32.412Z,101089.84
2023-03-16T20:27:37.306Z,101094.06
2023-03-16T20:30:42.309Z,101096.69
2023-03-16T20:33:48.309Z,101096.84
2023-03-16T20:36:56.515Z,101106.09
2023-03-16T20:40:00.854Z,101113.25
2023-03-16T20:43:21.360Z,101107.06
2023-03-16T20:46:29.270Z,101110.81
2023-03-16T20:49:37.428Z,101116.03
2023-03-16T20:52:42.429Z,101122.97
2023-03-16T20:55:49.020Z,101124.03
2023-03-16T20:58:56.563Z,101111.81
2023-03-16T21:02:02.336Z,101101.72
2023-03-16T21:05:08.512Z,101112.28
2023-03-16T21:08:13.289Z,101117.41
2023-03-16T21:11:25.801Z,101123.31
2023-03-16T21:14:29.832Z,101126.19
2023-03-16T21:17:36.737Z,101122.47
2023-03-16T21:20:40.173Z,101134.94
2023-03-16T21:23:43.618Z,101149.53
2023-03-16T21:26:47.683Z,101167.09
2023-03-16T21:29:51.119Z,101158.81
2023-03-16T21:32:56.150Z,101153.22
2023-03-16T21:36:01.494Z,101146.34
2023-03-16T21:39:18.130Z,101138.94
2023-03-16T21:42:21.567Z,101138.16
2023-03-16T21:45:25.853Z,101140.56
2023-03-16T21:48:36.573Z,101138.94
2023-03-16T21:51:40.377Z,101133.56
2023-03-16T21:54:43.218Z,101137.97
2023-03-16T21:57:47.109Z,101121.50
2023-03-16T22:00:51.965Z,101134.38
2023-03-16T22:04:14.431Z,101130.59
2023-03-16T22:07:17.714Z,101131.34
2023-03-16T22:10:21.122Z,101123.03
2023-03-16T22:13:24.671Z,101130.19
2023-03-16T22:16:31.972Z,101136.25
2023-03-16T22:19:34.909Z,101129.22
2023-03-16T22:22:38.020Z,101132.25
2023-03-16T22:25:40.758Z,101127.63
2023-03-16T22:28:44.653Z,101130.31
2023-03-16T22:31:48.940Z,101129.25
2023-03-16T22:34:56.264Z,101147.00
2023-03-16T22:38:03.563Z,101144.06
2023-03-16T22:41:07.795Z,101143.03
2023-03-16T22:44:22.396Z,101143.66
2023-03-16T22:47:33.747Z,101142.84
2023-03-16T22:50:36.826Z,101147.12
2023-03-16T22:53:44.139Z,101146.31
2023-03-16T22:56:47.962Z,101150.34
2023-03-16T22:59:52.001Z,101148.50
2023-03-16T23:02:56.362Z,101160.28
2023-03-16T23:05:59.374Z,101154.88
2023-03-16T23:09:02.520Z,101156.72
2023-03-16T23:12:14.109Z,101148.53
2023-03-16T23:15:21.074Z,101150.03
2023-03-16T23:18:26.342Z,101148.13
2023-03-16T23:21:30.053Z,101153.16
2023-03-16T23:24:34.788Z,101153.75
2023-03-16T23:27:37.800Z,101145.53
2023-03-16T23:30:40.949Z,101139.72
2023-03-16T23:33:44.196Z,101138.69
2023-03-16T23:36:47.896Z,101143.00
2023-03-16T23:39:50.700Z,101145.03
2023-03-16T23:42:55.845Z,101144.03
2023-03-16T23:45:58.780Z,101149.28
2023-03-16T23:49:04.084Z,101144.56
2023-03-16T23:52:07.570Z,101159.94
2023-03-16T23:55:14.468Z,101158.47
2023-03-16T23:58:17.975Z,101156.13
